Prairie, Idaho
Current Conditions -  °F | °C
As of 2:58 AM on Tuesday 21 Oct 2014 (Local Time) from KMUO Reporting Station
Light Rain Light Rain  
Wind Chill: 55°   Ceiling: 6000
Heat Index: 55°   Visibility: 10mi
Dew Point: 48°   Wind: 24mph
Humidity: 80%   Direction: 320°NW
Pressure: 29.86"   Gusts: 32mph
Location:  43.2609°N, 115.781°W
Report Text: KMUO 210858Z AUTO 32021G28KT 10SM -RA OVC060 13/09 A2986 RMK AO2 PK WND 32034/04 RAE0758B0835DZB0758E0802B0832E0835 PRESRR SLP093 P0000 60000 T01250091 52051
Loading
Personal Weather Stations






























Interactive Weather Map
Tropical Storm Tracking
New forecast layout! Learn more

10-Day Weather Forecast

Advertisements
Track Severe Weather on mobile